sensor_id;sensor_type;location;lat;lon;timestamp;P1;durP1;ratioP1;P2;durP2;ratioP2
41572;SDS011;27286;47.870;19.006;2022-10-16T00:01:22;11.98;;;6.43;;
41572;SDS011;27286;47.870;19.006;2022-10-16T00:03:49;9.15;;;6.03;;
41572;SDS011;27286;47.870;19.006;2022-10-16T00:06:15;11.55;;;6.18;;
41572;SDS011;27286;47.870;19.006;2022-10-16T00:08:43;11.07;;;7.75;;
41572;SDS011;27286;47.870;19.006;2022-10-16T00:11:19;12.10;;;6.30;;
41572;SDS011;27286;47.870;19.006;2022-10-16T00:13:50;8.38;;;6.25;;
41572;SDS011;27286;47.870;19.006;2022-10-16T00:16:19;8.18;;;6.05;;
41572;SDS011;27286;47.870;19.006;2022-10-16T00:18:45;8.88;;;4.55;;
41572;SDS011;27286;47.870;19.006;2022-10-16T00:21:14;12.00;;;6.68;;
41572;SDS011;27286;47.870;19.006;2022-10-16T00:23:41;10.30;;;6.32;;
41572;SDS011;27286;47.870;19.006;2022-10-16T00:26:09;17.95;;;6.15;;
41572;SDS011;27286;47.870;19.006;2022-10-16T00:28:37;15.23;;;6.28;;
41572;SDS011;27286;47.870;19.006;2022-10-16T00:31:06;8.82;;;5.85;;
41572;SDS011;27286;47.870;19.006;2022-10-16T00:33:34;8.18;;;5.28;;
41572;SDS011;27286;47.870;19.006;2022-10-16T00:36:01;13.18;;;5.68;;
41572;SDS011;27286;47.870;19.006;2022-10-16T00:38:27;8.95;;;5.68;;
41572;SDS011;27286;47.870;19.006;2022-10-16T00:40:53;9.98;;;5.97;;
41572;SDS011;27286;47.870;19.006;2022-10-16T00:43:35;7.78;;;5.75;;
41572;SDS011;27286;47.870;19.006;2022-10-16T00:51:17;9.30;;;6.20;;
41572;SDS011;27286;47.870;19.006;2022-10-16T00:53:46;11.10;;;5.25;;
41572;SDS011;27286;47.870;19.006;2022-10-16T00:56:13;12.85;;;5.65;;
41572;SDS011;27286;47.870;19.006;2022-10-16T00:58:38;6.75;;;4.70;;
41572;SDS011;27286;47.870;19.006;2022-10-16T01:01:04;8.30;;;4.82;;
41572;SDS011;27286;47.870;19.006;2022-10-16T01:03:31;14.75;;;5.88;;
41572;SDS011;27286;47.870;19.006;2022-10-16T01:06:05;10.73;;;4.82;;
41572;SDS011;27286;47.870;19.006;2022-10-16T01:14:00;7.75;;;4.53;;
41572;SDS011;27286;47.870;19.006;2022-10-16T01:16:35;6.60;;;4.43;;
41572;SDS011;27286;47.870;19.006;2022-10-16T01:19:12;8.07;;;4.38;;
41572;SDS011;27286;47.870;19.006;2022-10-16T01:21:46;9.48;;;5.25;;
41572;SDS011;27286;47.870;19.006;2022-10-16T01:24:33;6.10;;;4.43;;
41572;SDS011;27286;47.870;19.006;2022-10-16T01:35:07;6.75;;;4.55;;
41572;SDS011;27286;47.870;19.006;2022-10-16T01:37:50;8.85;;;5.13;;
41572;SDS011;27286;47.870;19.006;2022-10-16T01:40:20;8.60;;;5.25;;
41572;SDS011;27286;47.870;19.006;2022-10-16T01:42:52;11.75;;;5.32;;
41572;SDS011;27286;47.870;19.006;2022-10-16T01:45:24;9.88;;;5.13;;
41572;SDS011;27286;47.870;19.006;2022-10-16T01:47:50;11.90;;;5.05;;
41572;SDS011;27286;47.870;19.006;2022-10-16T01:50:18;8.75;;;4.63;;
41572;SDS011;27286;47.870;19.006;2022-10-16T01:52:46;7.18;;;4.45;;
41572;SDS011;27286;47.870;19.006;2022-10-16T01:55:25;7.43;;;3.92;;
41572;SDS011;27286;47.870;19.006;2022-10-16T01:57:56;11.32;;;5.13;;
41572;SDS011;27286;47.870;19.006;2022-10-16T02:00:23;8.30;;;4.32;;
41572;SDS011;27286;47.870;19.006;2022-10-16T02:02:51;8.63;;;4.32;;
41572;SDS011;27286;47.870;19.006;2022-10-16T02:05:22;6.25;;;4.05;;
41572;SDS011;27286;47.870;19.006;2022-10-16T02:07:51;7.38;;;4.70;;
41572;SDS011;27286;47.870;19.006;2022-10-16T02:10:17;6.40;;;3.85;;
41572;SDS011;27286;47.870;19.006;2022-10-16T02:12:45;6.63;;;4.22;;
41572;SDS011;27286;47.870;19.006;2022-10-16T02:15:16;6.72;;;4.53;;
41572;SDS011;27286;47.870;19.006;2022-10-16T02:17:41;10.25;;;4.25;;
41572;SDS011;27286;47.870;19.006;2022-10-16T02:20:07;8.60;;;3.83;;
41572;SDS011;27286;47.870;19.006;2022-10-16T02:22:34;7.55;;;4.07;;
41572;SDS011;27286;47.870;19.006;2022-10-16T02:25:08;6.80;;;3.90;;
41572;SDS011;27286;47.870;19.006;2022-10-16T02:32:53;5.93;;;4.25;;
41572;SDS011;27286;47.870;19.006;2022-10-16T02:35:21;6.43;;;4.13;;
41572;SDS011;27286;47.870;19.006;2022-10-16T02:37:48;9.23;;;4.18;;
41572;SDS011;27286;47.870;19.006;2022-10-16T02:40:15;11.30;;;3.38;;
41572;SDS011;27286;47.870;19.006;2022-10-16T02:42:42;12.00;;;4.18;;
41572;SDS011;27286;47.870;19.006;2022-10-16T02:45:08;9.27;;;4.43;;
41572;SDS011;27286;47.870;19.006;2022-10-16T02:47:36;7.18;;;3.67;;
41572;SDS011;27286;47.870;19.006;2022-10-16T02:50:02;6.80;;;3.50;;
41572;SDS011;27286;47.870;19.006;2022-10-16T02:52:27;6.90;;;3.70;;
41572;SDS011;27286;47.870;19.006;2022-10-16T02:54:53;7.60;;;3.00;;
41572;SDS011;27286;47.870;19.006;2022-10-16T02:57:18;6.38;;;3.95;;
41572;SDS011;27286;47.870;19.006;2022-10-16T02:59:44;8.02;;;3.88;;
41572;SDS011;27286;47.870;19.006;2022-10-16T03:02:10;7.57;;;4.00;;
41572;SDS011;27286;47.870;19.006;2022-10-16T03:04:35;10.18;;;3.50;;
41572;SDS011;27286;47.870;19.006;2022-10-16T03:07:01;8.35;;;3.22;;
41572;SDS011;27286;47.870;19.006;2022-10-16T03:09:27;6.78;;;4.13;;
41572;SDS011;27286;47.870;19.006;2022-10-16T03:11:52;6.20;;;3.40;;
41572;SDS011;27286;47.870;19.006;2022-10-16T03:14:17;5.68;;;3.83;;
41572;SDS011;27286;47.870;19.006;2022-10-16T03:16:43;5.85;;;3.67;;
41572;SDS011;27286;47.870;19.006;2022-10-16T03:19:08;9.70;;;3.78;;
41572;SDS011;27286;47.870;19.006;2022-10-16T03:21:34;6.82;;;3.97;;
41572;SDS011;27286;47.870;19.006;2022-10-16T03:23:59;6.03;;;3.55;;
41572;SDS011;27286;47.870;19.006;2022-10-16T03:26:24;8.73;;;3.92;;
41572;SDS011;27286;47.870;19.006;2022-10-16T03:28:50;4.75;;;3.45;;
41572;SDS011;27286;47.870;19.006;2022-10-16T03:31:15;7.70;;;3.78;;
41572;SDS011;27286;47.870;19.006;2022-10-16T03:33:40;7.07;;;3.63;;
41572;SDS011;27286;47.870;19.006;2022-10-16T03:36:06;8.45;;;3.90;;
41572;SDS011;27286;47.870;19.006;2022-10-16T03:38:31;9.55;;;4.25;;
41572;SDS011;27286;47.870;19.006;2022-10-16T03:40:57;7.90;;;3.60;;
41572;SDS011;27286;47.870;19.006;2022-10-16T03:43:22;8.73;;;4.15;;
41572;SDS011;27286;47.870;19.006;2022-10-16T03:45:49;4.90;;;2.97;;
41572;SDS011;27286;47.870;19.006;2022-10-16T03:48:16;5.57;;;3.92;;
41572;SDS011;27286;47.870;19.006;2022-10-16T03:50:42;6.20;;;3.38;;
41572;SDS011;27286;47.870;19.006;2022-10-16T03:53:07;6.55;;;3.92;;
41572;SDS011;27286;47.870;19.006;2022-10-16T03:55:32;6.88;;;3.28;;
41572;SDS011;27286;47.870;19.006;2022-10-16T03:57:58;9.63;;;3.95;;
41572;SDS011;27286;47.870;19.006;2022-10-16T04:00:23;5.55;;;3.25;;
41572;SDS011;27286;47.870;19.006;2022-10-16T04:02:49;10.30;;;4.85;;
41572;SDS011;27286;47.870;19.006;2022-10-16T04:05:14;5.35;;;3.45;;
41572;SDS011;27286;47.870;19.006;2022-10-16T04:07:39;7.05;;;3.15;;
41572;SDS011;27286;47.870;19.006;2022-10-16T04:10:05;5.90;;;3.30;;
41572;SDS011;27286;47.870;19.006;2022-10-16T04:12:31;6.13;;;3.35;;
41572;SDS011;27286;47.870;19.006;2022-10-16T04:14:56;7.43;;;3.88;;
41572;SDS011;27286;47.870;19.006;2022-10-16T04:17:21;5.95;;;3.30;;
41572;SDS011;27286;47.870;19.006;2022-10-16T04:19:47;9.85;;;3.65;;
41572;SDS011;27286;47.870;19.006;2022-10-16T04:22:12;6.00;;;3.28;;
41572;SDS011;27286;47.870;19.006;2022-10-16T04:24:38;5.55;;;3.35;;
41572;SDS011;27286;47.870;19.006;2022-10-16T04:27:03;6.18;;;3.05;;
41572;SDS011;27286;47.870;19.006;2022-10-16T04:29:28;6.97;;;3.75;;
41572;SDS011;27286;47.870;19.006;2022-10-16T04:31:54;7.00;;;4.03;;
41572;SDS011;27286;47.870;19.006;2022-10-16T04:34:19;4.82;;;3.10;;
41572;SDS011;27286;47.870;19.006;2022-10-16T04:36:46;6.90;;;3.50;;
41572;SDS011;27286;47.870;19.006;2022-10-16T04:39:13;7.03;;;3.72;;
41572;SDS011;27286;47.870;19.006;2022-10-16T04:41:39;8.20;;;4.18;;
41572;SDS011;27286;47.870;19.006;2022-10-16T04:44:04;8.95;;;4.13;;
41572;SDS011;27286;47.870;19.006;2022-10-16T04:46:30;7.93;;;3.08;;
41572;SDS011;27286;47.870;19.006;2022-10-16T04:48:55;5.82;;;3.42;;
41572;SDS011;27286;47.870;19.006;2022-10-16T04:51:20;6.13;;;3.90;;
41572;SDS011;27286;47.870;19.006;2022-10-16T04:53:46;8.20;;;3.85;;
41572;SDS011;27286;47.870;19.006;2022-10-16T04:56:11;6.82;;;3.08;;
41572;SDS011;27286;47.870;19.006;2022-10-16T04:58:36;8.32;;;3.67;;
41572;SDS011;27286;47.870;19.006;2022-10-16T05:01:02;5.00;;;2.85;;
41572;SDS011;27286;47.870;19.006;2022-10-16T05:03:28;5.78;;;3.38;;
41572;SDS011;27286;47.870;19.006;2022-10-16T05:05:53;7.35;;;3.67;;
41572;SDS011;27286;47.870;19.006;2022-10-16T05:08:18;8.95;;;3.85;;
41572;SDS011;27286;47.870;19.006;2022-10-16T05:10:44;7.00;;;4.00;;
41572;SDS011;27286;47.870;19.006;2022-10-16T05:13:10;7.38;;;3.58;;
41572;SDS011;27286;47.870;19.006;2022-10-16T05:15:36;9.75;;;3.17;;
41572;SDS011;27286;47.870;19.006;2022-10-16T05:18:02;6.50;;;3.53;;
41572;SDS011;27286;47.870;19.006;2022-10-16T05:20:27;10.88;;;3.38;;
41572;SDS011;27286;47.870;19.006;2022-10-16T05:22:53;11.82;;;3.90;;
41572;SDS011;27286;47.870;19.006;2022-10-16T05:25:18;9.30;;;4.15;;
41572;SDS011;27286;47.870;19.006;2022-10-16T05:27:46;7.50;;;4.22;;
41572;SDS011;27286;47.870;19.006;2022-10-16T05:30:13;7.70;;;4.50;;
41572;SDS011;27286;47.870;19.006;2022-10-16T05:32:38;8.50;;;4.40;;
41572;SDS011;27286;47.870;19.006;2022-10-16T05:35:04;12.57;;;3.63;;
41572;SDS011;27286;47.870;19.006;2022-10-16T05:37:29;8.10;;;4.10;;
41572;SDS011;27286;47.870;19.006;2022-10-16T05:39:55;9.77;;;4.45;;
41572;SDS011;27286;47.870;19.006;2022-10-16T05:42:20;7.07;;;3.58;;
41572;SDS011;27286;47.870;19.006;2022-10-16T05:44:46;10.02;;;3.05;;
41572;SDS011;27286;47.870;19.006;2022-10-16T05:47:12;5.72;;;2.88;;
41572;SDS011;27286;47.870;19.006;2022-10-16T05:49:39;6.25;;;3.20;;
41572;SDS011;27286;47.870;19.006;2022-10-16T05:52:04;6.25;;;3.00;;
41572;SDS011;27286;47.870;19.006;2022-10-16T05:54:29;10.48;;;4.03;;
41572;SDS011;27286;47.870;19.006;2022-10-16T05:56:55;6.28;;;3.83;;
41572;SDS011;27286;47.870;19.006;2022-10-16T05:59:20;7.97;;;4.05;;
41572;SDS011;27286;47.870;19.006;2022-10-16T06:01:45;7.03;;;2.97;;
41572;SDS011;27286;47.870;19.006;2022-10-16T06:04:11;9.07;;;4.60;;
41572;SDS011;27286;47.870;19.006;2022-10-16T06:06:36;13.70;;;5.80;;
41572;SDS011;27286;47.870;19.006;2022-10-16T06:09:02;8.95;;;4.78;;
41572;SDS011;27286;47.870;19.006;2022-10-16T06:11:29;7.25;;;4.03;;
41572;SDS011;27286;47.870;19.006;2022-10-16T06:13:57;5.85;;;3.20;;
41572;SDS011;27286;47.870;19.006;2022-10-16T06:16:27;7.05;;;3.33;;
41572;SDS011;27286;47.870;19.006;2022-10-16T06:18:53;6.78;;;3.28;;
41572;SDS011;27286;47.870;19.006;2022-10-16T06:21:20;8.05;;;3.33;;
41572;SDS011;27286;47.870;19.006;2022-10-16T06:23:49;7.07;;;3.70;;
41572;SDS011;27286;47.870;19.006;2022-10-16T06:26:16;7.35;;;3.92;;
41572;SDS011;27286;47.870;19.006;2022-10-16T06:28:43;9.43;;;3.50;;
41572;SDS011;27286;47.870;19.006;2022-10-16T06:31:10;7.43;;;4.10;;
41572;SDS011;27286;47.870;19.006;2022-10-16T06:33:37;7.28;;;3.78;;
41572;SDS011;27286;47.870;19.006;2022-10-16T06:36:03;10.43;;;4.55;;
41572;SDS011;27286;47.870;19.006;2022-10-16T06:38:34;8.25;;;3.42;;
41572;SDS011;27286;47.870;19.006;2022-10-16T06:41:00;6.63;;;3.38;;
41572;SDS011;27286;47.870;19.006;2022-10-16T06:43:25;6.90;;;3.70;;
41572;SDS011;27286;47.870;19.006;2022-10-16T06:45:55;7.22;;;3.42;;
41572;SDS011;27286;47.870;19.006;2022-10-16T06:48:22;4.47;;;3.50;;
41572;SDS011;27286;47.870;19.006;2022-10-16T06:51:05;5.55;;;3.20;;
41572;SDS011;27286;47.870;19.006;2022-10-16T06:53:33;7.93;;;4.17;;
41572;SDS011;27286;47.870;19.006;2022-10-16T06:56:20;6.47;;;3.47;;
41572;SDS011;27286;47.870;19.006;2022-10-16T06:58:47;7.20;;;3.35;;
41572;SDS011;27286;47.870;19.006;2022-10-16T07:01:14;5.68;;;3.28;;
41572;SDS011;27286;47.870;19.006;2022-10-16T07:03:42;7.95;;;3.90;;
41572;SDS011;27286;47.870;19.006;2022-10-16T07:06:10;7.60;;;4.55;;
41572;SDS011;27286;47.870;19.006;2022-10-16T07:08:38;6.13;;;3.38;;
41572;SDS011;27286;47.870;19.006;2022-10-16T07:11:08;8.05;;;3.75;;
41572;SDS011;27286;47.870;19.006;2022-10-16T07:13:36;8.73;;;4.57;;
41572;SDS011;27286;47.870;19.006;2022-10-16T07:18:35;11.13;;;3.72;;
41572;SDS011;27286;47.870;19.006;2022-10-16T07:23:31;5.72;;;3.92;;
41572;SDS011;27286;47.870;19.006;2022-10-16T07:25:56;6.80;;;3.70;;
41572;SDS011;27286;47.870;19.006;2022-10-16T07:28:22;6.15;;;3.25;;
41572;SDS011;27286;47.870;19.006;2022-10-16T07:30:47;7.40;;;3.47;;
41572;SDS011;27286;47.870;19.006;2022-10-16T07:33:13;6.88;;;3.70;;
41572;SDS011;27286;47.870;19.006;2022-10-16T07:35:46;7.03;;;3.33;;
41572;SDS011;27286;47.870;19.006;2022-10-16T07:38:12;8.90;;;3.47;;
41572;SDS011;27286;47.870;19.006;2022-10-16T07:40:38;6.07;;;3.40;;
41572;SDS011;27286;47.870;19.006;2022-10-16T07:43:03;8.10;;;3.38;;
41572;SDS011;27286;47.870;19.006;2022-10-16T07:45:30;8.27;;;3.65;;
41572;SDS011;27286;47.870;19.006;2022-10-16T07:47:55;6.13;;;3.30;;
41572;SDS011;27286;47.870;19.006;2022-10-16T07:50:21;6.00;;;3.63;;
41572;SDS011;27286;47.870;19.006;2022-10-16T07:52:46;6.90;;;3.40;;
41572;SDS011;27286;47.870;19.006;2022-10-16T07:55:11;7.85;;;3.58;;
41572;SDS011;27286;47.870;19.006;2022-10-16T07:57:37;6.60;;;3.17;;
41572;SDS011;27286;47.870;19.006;2022-10-16T08:00:02;7.82;;;3.65;;
41572;SDS011;27286;47.870;19.006;2022-10-16T08:02:28;5.50;;;3.67;;
41572;SDS011;27286;47.870;19.006;2022-10-16T08:04:53;5.95;;;3.50;;
41572;SDS011;27286;47.870;19.006;2022-10-16T08:07:19;7.22;;;3.55;;
41572;SDS011;27286;47.870;19.006;2022-10-16T08:09:44;6.63;;;3.30;;
41572;SDS011;27286;47.870;19.006;2022-10-16T08:12:13;5.63;;;3.40;;
41572;SDS011;27286;47.870;19.006;2022-10-16T08:14:38;5.68;;;2.83;;
41572;SDS011;27286;47.870;19.006;2022-10-16T08:17:04;5.18;;;3.22;;
41572;SDS011;27286;47.870;19.006;2022-10-16T08:19:29;5.38;;;3.03;;
41572;SDS011;27286;47.870;19.006;2022-10-16T08:21:56;5.05;;;3.20;;
41572;SDS011;27286;47.870;19.006;2022-10-16T08:24:22;5.63;;;3.05;;
41572;SDS011;27286;47.870;19.006;2022-10-16T08:26:47;7.45;;;3.35;;
41572;SDS011;27286;47.870;19.006;2022-10-16T08:29:13;5.03;;;2.65;;
41572;SDS011;27286;47.870;19.006;2022-10-16T08:31:39;8.63;;;4.07;;
41572;SDS011;27286;47.870;19.006;2022-10-16T08:34:04;5.28;;;3.33;;
41572;SDS011;27286;47.870;19.006;2022-10-16T08:36:30;8.10;;;3.60;;
41572;SDS011;27286;47.870;19.006;2022-10-16T08:38:55;8.18;;;3.40;;
41572;SDS011;27286;47.870;19.006;2022-10-16T08:41:34;6.95;;;3.58;;
41572;SDS011;27286;47.870;19.006;2022-10-16T08:44:30;6.85;;;3.15;;
41572;SDS011;27286;47.870;19.006;2022-10-16T08:50:13;4.95;;;3.30;;
41572;SDS011;27286;47.870;19.006;2022-10-16T08:52:43;5.82;;;3.13;;
41572;SDS011;27286;47.870;19.006;2022-10-16T08:56:10;6.35;;;3.45;;
41572;SDS011;27286;47.870;19.006;2022-10-16T08:58:13;9.48;;;3.72;;
41572;SDS011;27286;47.870;19.006;2022-10-16T09:00:40;10.80;;;3.25;;
41572;SDS011;27286;47.870;19.006;2022-10-16T09:03:18;13.32;;;2.97;;
41572;SDS011;27286;47.870;19.006;2022-10-16T09:08:34;9.73;;;3.30;;
41572;SDS011;27286;47.870;19.006;2022-10-16T09:16:46;6.60;;;3.70;;
41572;SDS011;27286;47.870;19.006;2022-10-16T09:19:25;5.20;;;3.60;;
41572;SDS011;27286;47.870;19.006;2022-10-16T09:21:53;4.65;;;3.10;;
41572;SDS011;27286;47.870;19.006;2022-10-16T09:24:21;8.07;;;3.28;;
41572;SDS011;27286;47.870;19.006;2022-10-16T09:26:50;5.32;;;2.75;;
41572;SDS011;27286;47.870;19.006;2022-10-16T09:29:17;6.20;;;3.05;;
41572;SDS011;27286;47.870;19.006;2022-10-16T09:31:49;5.97;;;3.20;;
41572;SDS011;27286;47.870;19.006;2022-10-16T09:34:30;5.90;;;3.00;;
41572;SDS011;27286;47.870;19.006;2022-10-16T09:36:59;3.72;;;2.67;;
41572;SDS011;27286;47.870;19.006;2022-10-16T09:39:28;8.05;;;3.38;;
41572;SDS011;27286;47.870;19.006;2022-10-16T09:41:54;4.63;;;2.85;;
41572;SDS011;27286;47.870;19.006;2022-10-16T09:47:00;5.03;;;3.10;;
41572;SDS011;27286;47.870;19.006;2022-10-16T09:49:30;6.82;;;2.95;;
41572;SDS011;27286;47.870;19.006;2022-10-16T09:52:12;6.57;;;3.47;;
41572;SDS011;27286;47.870;19.006;2022-10-16T09:54:49;7.25;;;3.58;;
41572;SDS011;27286;47.870;19.006;2022-10-16T09:57:15;5.28;;;3.05;;
41572;SDS011;27286;47.870;19.006;2022-10-16T09:59:57;6.13;;;3.03;;
41572;SDS011;27286;47.870;19.006;2022-10-16T10:02:36;6.20;;;3.20;;
41572;SDS011;27286;47.870;19.006;2022-10-16T10:05:05;7.75;;;3.45;;
41572;SDS011;27286;47.870;19.006;2022-10-16T10:07:44;6.05;;;3.13;;
41572;SDS011;27286;47.870;19.006;2022-10-16T10:10:21;4.75;;;3.05;;
41572;SDS011;27286;47.870;19.006;2022-10-16T10:12:49;6.18;;;2.58;;
41572;SDS011;27286;47.870;19.006;2022-10-16T10:15:14;5.95;;;2.85;;
41572;SDS011;27286;47.870;19.006;2022-10-16T10:17:51;9.38;;;2.78;;
41572;SDS011;27286;47.870;19.006;2022-10-16T10:20:23;8.00;;;3.47;;
41572;SDS011;27286;47.870;19.006;2022-10-16T10:22:57;6.32;;;3.05;;
41572;SDS011;27286;47.870;19.006;2022-10-16T10:25:31;8.75;;;2.72;;
41572;SDS011;27286;47.870;19.006;2022-10-16T10:46:41;5.53;;;2.92;;
41572;SDS011;27286;47.870;19.006;2022-10-16T10:49:37;5.40;;;3.28;;
41572;SDS011;27286;47.870;19.006;2022-10-16T10:54:36;4.88;;;2.90;;
41572;SDS011;27286;47.870;19.006;2022-10-16T11:05:13;4.72;;;2.90;;
41572;SDS011;27286;47.870;19.006;2022-10-16T11:07:47;5.15;;;3.15;;
41572;SDS011;27286;47.870;19.006;2022-10-16T11:11:03;4.15;;;2.40;;
41572;SDS011;27286;47.870;19.006;2022-10-16T11:21:36;6.72;;;2.67;;
41572;SDS011;27286;47.870;19.006;2022-10-16T11:26:44;3.78;;;2.25;;
41572;SDS011;27286;47.870;19.006;2022-10-16T11:29:23;5.88;;;3.28;;
41572;SDS011;27286;47.870;19.006;2022-10-16T11:31:55;3.78;;;2.50;;
41572;SDS011;27286;47.870;19.006;2022-10-16T11:34:29;5.47;;;2.72;;
41572;SDS011;27286;47.870;19.006;2022-10-16T11:37:08;8.02;;;3.22;;
41572;SDS011;27286;47.870;19.006;2022-10-16T11:39:39;10.60;;;3.30;;
41572;SDS011;27286;47.870;19.006;2022-10-16T11:42:10;4.53;;;2.42;;
41572;SDS011;27286;47.870;19.006;2022-10-16T11:55:32;5.43;;;3.30;;
41572;SDS011;27286;47.870;19.006;2022-10-16T11:58:06;6.25;;;2.60;;
41572;SDS011;27286;47.870;19.006;2022-10-16T12:00:42;7.70;;;2.75;;
41572;SDS011;27286;47.870;19.006;2022-10-16T12:08:45;4.55;;;2.42;;
41572;SDS011;27286;47.870;19.006;2022-10-16T12:14:16;6.15;;;3.10;;
41572;SDS011;27286;47.870;19.006;2022-10-16T12:16:51;6.13;;;3.45;;
41572;SDS011;27286;47.870;19.006;2022-10-16T12:19:25;8.32;;;4.63;;
41572;SDS011;27286;47.870;19.006;2022-10-16T12:21:54;7.10;;;3.00;;
41572;SDS011;27286;47.870;19.006;2022-10-16T12:27:19;4.28;;;2.15;;
41572;SDS011;27286;47.870;19.006;2022-10-16T12:30:01;4.28;;;2.55;;
41572;SDS011;27286;47.870;19.006;2022-10-16T12:32:36;5.25;;;2.42;;
41572;SDS011;27286;47.870;19.006;2022-10-16T12:35:05;4.03;;;2.10;;
41572;SDS011;27286;47.870;19.006;2022-10-16T12:37:41;4.35;;;2.40;;
41572;SDS011;27286;47.870;19.006;2022-10-16T12:43:13;5.13;;;2.03;;
41572;SDS011;27286;47.870;19.006;2022-10-16T12:45:58;6.70;;;3.65;;
41572;SDS011;27286;47.870;19.006;2022-10-16T12:48:28;3.72;;;2.33;;
41572;SDS011;27286;47.870;19.006;2022-10-16T12:50:55;5.40;;;2.42;;
41572;SDS011;27286;47.870;19.006;2022-10-16T12:53:24;6.35;;;2.83;;
41572;SDS011;27286;47.870;19.006;2022-10-16T12:56:05;4.32;;;2.03;;
41572;SDS011;27286;47.870;19.006;2022-10-16T12:58:57;11.02;;;2.67;;
41572;SDS011;27286;47.870;19.006;2022-10-16T13:10:00;4.45;;;2.38;;
41572;SDS011;27286;47.870;19.006;2022-10-16T13:15:24;2.92;;;1.95;;
41572;SDS011;27286;47.870;19.006;2022-10-16T13:18:12;6.95;;;1.65;;
41572;SDS011;27286;47.870;19.006;2022-10-16T13:21:26;4.13;;;2.22;;
41572;SDS011;27286;47.870;19.006;2022-10-16T13:23:57;3.30;;;1.95;;
41572;SDS011;27286;47.870;19.006;2022-10-16T13:29:28;4.50;;;2.63;;
41572;SDS011;27286;47.870;19.006;2022-10-16T13:31:55;6.03;;;3.05;;
41572;SDS011;27286;47.870;19.006;2022-10-16T13:34:21;7.00;;;2.40;;
41572;SDS011;27286;47.870;19.006;2022-10-16T13:36:51;2.58;;;1.63;;
41572;SDS011;27286;47.870;19.006;2022-10-16T13:39:22;4.78;;;2.22;;
41572;SDS011;27286;47.870;19.006;2022-10-16T13:42:03;3.33;;;1.73;;
41572;SDS011;27286;47.870;19.006;2022-10-16T13:44:35;4.70;;;2.25;;
41572;SDS011;27286;47.870;19.006;2022-10-16T13:47:27;5.95;;;2.40;;
41572;SDS011;27286;47.870;19.006;2022-10-16T13:52:30;3.33;;;1.88;;
41572;SDS011;27286;47.870;19.006;2022-10-16T13:54:56;3.75;;;1.60;;
41572;SDS011;27286;47.870;19.006;2022-10-16T13:57:23;3.67;;;1.98;;
41572;SDS011;27286;47.870;19.006;2022-10-16T13:59:49;4.50;;;2.15;;
41572;SDS011;27286;47.870;19.006;2022-10-16T14:07:28;3.33;;;1.60;;
41572;SDS011;27286;47.870;19.006;2022-10-16T14:09:56;5.20;;;2.95;;
41572;SDS011;27286;47.870;19.006;2022-10-16T14:12:26;4.05;;;2.92;;
41572;SDS011;27286;47.870;19.006;2022-10-16T14:14:52;4.00;;;1.95;;
41572;SDS011;27286;47.870;19.006;2022-10-16T14:19:48;2.55;;;1.48;;
41572;SDS011;27286;47.870;19.006;2022-10-16T14:24:59;5.22;;;1.92;;
41572;SDS011;27286;47.870;19.006;2022-10-16T14:27:32;3.25;;;2.03;;
41572;SDS011;27286;47.870;19.006;2022-10-16T14:30:12;5.18;;;3.25;;
41572;SDS011;27286;47.870;19.006;2022-10-16T14:32:52;7.95;;;3.78;;
41572;SDS011;27286;47.870;19.006;2022-10-16T14:35:35;7.28;;;3.75;;
41572;SDS011;27286;47.870;19.006;2022-10-16T14:38:03;5.43;;;2.70;;
41572;SDS011;27286;47.870;19.006;2022-10-16T14:40:35;2.50;;;1.75;;
41572;SDS011;27286;47.870;19.006;2022-10-16T14:43:02;6.38;;;2.35;;
41572;SDS011;27286;47.870;19.006;2022-10-16T14:45:30;4.40;;;2.17;;
41572;SDS011;27286;47.870;19.006;2022-10-16T14:47:58;5.55;;;3.08;;
41572;SDS011;27286;47.870;19.006;2022-10-16T14:50:26;12.27;;;7.18;;
41572;SDS011;27286;47.870;19.006;2022-10-16T14:52:52;10.57;;;6.75;;
41572;SDS011;27286;47.870;19.006;2022-10-16T14:55:18;8.18;;;4.30;;
41572;SDS011;27286;47.870;19.006;2022-10-16T14:57:44;7.38;;;5.70;;
41572;SDS011;27286;47.870;19.006;2022-10-16T15:00:28;9.65;;;7.40;;
41572;SDS011;27286;47.870;19.006;2022-10-16T15:02:53;7.28;;;3.90;;
41572;SDS011;27286;47.870;19.006;2022-10-16T15:05:20;5.07;;;3.58;;
41572;SDS011;27286;47.870;19.006;2022-10-16T15:07:48;8.38;;;3.90;;
41572;SDS011;27286;47.870;19.006;2022-10-16T15:10:15;10.38;;;4.15;;
41572;SDS011;27286;47.870;19.006;2022-10-16T15:12:44;5.88;;;3.45;;
41572;SDS011;27286;47.870;19.006;2022-10-16T15:17:47;8.00;;;4.28;;
41572;SDS011;27286;47.870;19.006;2022-10-16T15:20:14;7.95;;;4.47;;
41572;SDS011;27286;47.870;19.006;2022-10-16T15:22:39;5.95;;;4.55;;
41572;SDS011;27286;47.870;19.006;2022-10-16T15:25:48;5.88;;;3.75;;
41572;SDS011;27286;47.870;19.006;2022-10-16T15:28:07;6.47;;;4.53;;
41572;SDS011;27286;47.870;19.006;2022-10-16T15:30:34;13.73;;;7.05;;
41572;SDS011;27286;47.870;19.006;2022-10-16T15:33:00;7.78;;;4.75;;
41572;SDS011;27286;47.870;19.006;2022-10-16T15:35:26;9.38;;;6.38;;
41572;SDS011;27286;47.870;19.006;2022-10-16T15:37:52;12.90;;;6.97;;
41572;SDS011;27286;47.870;19.006;2022-10-16T15:40:18;12.90;;;6.30;;
41572;SDS011;27286;47.870;19.006;2022-10-16T15:42:44;7.28;;;3.60;;
41572;SDS011;27286;47.870;19.006;2022-10-16T15:45:11;5.35;;;2.67;;
41572;SDS011;27286;47.870;19.006;2022-10-16T15:47:37;6.82;;;2.72;;
41572;SDS011;27286;47.870;19.006;2022-10-16T15:50:03;7.03;;;2.38;;
41572;SDS011;27286;47.870;19.006;2022-10-16T15:52:29;3.78;;;2.17;;
41572;SDS011;27286;47.870;19.006;2022-10-16T15:54:56;6.95;;;1.95;;
41572;SDS011;27286;47.870;19.006;2022-10-16T15:57:22;5.28;;;2.05;;
41572;SDS011;27286;47.870;19.006;2022-10-16T15:59:48;3.28;;;1.67;;
41572;SDS011;27286;47.870;19.006;2022-10-16T16:02:14;5.68;;;2.67;;
41572;SDS011;27286;47.870;19.006;2022-10-16T16:04:39;5.57;;;2.70;;
41572;SDS011;27286;47.870;19.006;2022-10-16T16:07:05;3.45;;;1.98;;
41572;SDS011;27286;47.870;19.006;2022-10-16T16:09:32;6.30;;;2.83;;
41572;SDS011;27286;47.870;19.006;2022-10-16T16:11:58;4.32;;;2.38;;
41572;SDS011;27286;47.870;19.006;2022-10-16T16:14:25;4.82;;;2.17;;
41572;SDS011;27286;47.870;19.006;2022-10-16T16:16:53;4.93;;;2.58;;
41572;SDS011;27286;47.870;19.006;2022-10-16T16:19:22;4.15;;;2.63;;
41572;SDS011;27286;47.870;19.006;2022-10-16T16:21:48;7.72;;;2.67;;
41572;SDS011;27286;47.870;19.006;2022-10-16T16:24:14;6.25;;;2.13;;
41572;SDS011;27286;47.870;19.006;2022-10-16T16:26:39;5.38;;;2.63;;
41572;SDS011;27286;47.870;19.006;2022-10-16T16:29:08;5.05;;;2.63;;
41572;SDS011;27286;47.870;19.006;2022-10-16T16:31:37;7.40;;;2.72;;
41572;SDS011;27286;47.870;19.006;2022-10-16T16:34:03;8.35;;;2.45;;
41572;SDS011;27286;47.870;19.006;2022-10-16T16:36:28;3.75;;;2.15;;
41572;SDS011;27286;47.870;19.006;2022-10-16T16:38:54;4.63;;;2.20;;
41572;SDS011;27286;47.870;19.006;2022-10-16T16:41:20;4.13;;;2.30;;
41572;SDS011;27286;47.870;19.006;2022-10-16T16:43:48;7.35;;;2.40;;
41572;SDS011;27286;47.870;19.006;2022-10-16T16:46:16;4.22;;;1.85;;
41572;SDS011;27286;47.870;19.006;2022-10-16T16:48:41;7.82;;;2.60;;
41572;SDS011;27286;47.870;19.006;2022-10-16T16:51:07;9.23;;;2.55;;
41572;SDS011;27286;47.870;19.006;2022-10-16T16:53:43;4.85;;;2.20;;
41572;SDS011;27286;47.870;19.006;2022-10-16T16:56:09;11.70;;;4.18;;
41572;SDS011;27286;47.870;19.006;2022-10-16T16:58:34;6.50;;;2.72;;
41572;SDS011;27286;47.870;19.006;2022-10-16T17:01:00;7.10;;;2.60;;
41572;SDS011;27286;47.870;19.006;2022-10-16T17:03:27;4.65;;;2.17;;